This is the latest recevied weather packets stored in our database for station/object F4GMT-11. If no packets are shown the sender has not sent any weather packets the latest 10 day(s).
| Time | Temp. | Humidity | Pressure | Rain* | Wind** | Luminosity | Snow |
|---|---|---|---|---|---|---|---|
| 1778212660 | 14.44° C | 55% | 1010.2 hPa | - | - | - | - |
| 1778211459 | 15° C | 55% | 1010.2 hPa | - | - | - | - |
| 1778210260 | 15° C | 54% | 1010.2 hPa | - | - | - | - |
| 1778209060 | 15° C | 54% | 1010.3 hPa | - | - | - | - |
| 1778207860 | 15.56° C | 54% | 1010.3 hPa | - | - | - | - |
| 1778205459 | 15.56° C | 54% | 1010.4 hPa | - | - | - | - |
| 1778204259 | 15.56° C | 54% | 1010.5 hPa | - | - | - | - |
| 1778203059 | 16.11° C | 54% | 1010.6 hPa | - | - | - | - |
| 1778199452 | 16.67° C | 53% | 1010.9 hPa | - | - | - | - |
| 1778198251 | 16.67° C | 53% | 1010.9 hPa | - | - | - | - |
| 1778194649 | 17.78° C | 53% | 1011.2 hPa | - | - | - | - |
| 1778191049 | 18.33° C | 52% | 1011.1 hPa | - | - | - | - |
| 1778189848 | 18.89° C | 52% | 1011 hPa | - | - | - | - |
| 1778186245 | 19.44° C | 51% | 1010.4 hPa | - | - | - | - |
| 1778185045 | 20° C | 51% | 1010.3 hPa | - | - | - | - |
| 1778183844 | 20.56° C | 50% | 1010.2 hPa | - | - | - | - |
| 1778182645 | 20.56° C | 50% | 1010.2 hPa | - | - | - | - |
| 1778181443 | 21.11° C | 50% | 1010.3 hPa | - | - | - | - |
| 1778180243 | 21.11° C | 49% | 1010.2 hPa | - | - | - | - |
| 1778177843 | 21.67° C | 51% | 1010 hPa | - | - | - | - |
| 1778175441 | 22.22° C | 50% | 1009.6 hPa | - | - | - | - |
| 1778170641 | 22.22° C | 48% | 1010 hPa | - | - | - | - |
| 1778169441 | 22.78° C | 49% | 1010.2 hPa | - | - | - | - |
| 1778167042 | 22.78° C | 49% | 1010.2 hPa | - | - | - | - |
| 1778155040 | 20° C | 56% | 1012 hPa | - | - | - | - |
* Rain since midnight (hover to see other rain measurements)
** Current wind speed in m/s (hover to see current wind gust speed)